Time;durP1;ratioP1;P1;durP2;ratioP2;P2;SDS_P1;SDS_P2;PMS_P1;PMS_P2;Temp;Humidity;BMP_temperature;BMP_pressure;BME280_temperature;BME280_humidity;BME280_pressure;Samples;Min_cycle;Max_cycle;Signal;HPM_P1;HPM_P2
2021/03/13 00:00:07;;;;;;;33.85;23.05;;;;;;;;;;5036074;28;20032;-81
2021/03/13 00:02:33;;;;;;;26.80;18.05;;;;;;;;;;5036089;28;20400;-81
2021/03/13 00:05:00;;;;;;;22.27;16.90;;;;;;;;;;5036148;28;20048;-81
2021/03/13 00:07:26;;;;;;;33.42;24.00;;;;;;;;;;5036018;28;20060;-81
2021/03/13 00:09:52;;;;;;;35.80;24.30;;;;;;;;;;5036021;28;20461;-81
2021/03/13 00:12:18;;;;;;;47.60;31.20;;;;;;;;;;5035899;28;20057;-81
2021/03/13 00:14:44;;;;;;;34.58;22.50;;;;;;;;;;5036070;28;20041;-81
2021/03/13 00:17:10;;;;;;;28.92;18.55;;;;;;;;;;5036047;28;20060;-81
2021/03/13 00:19:36;;;;;;;30.17;22.52;;;;;;;;;;5035791;28;20036;-81
2021/03/13 00:22:03;;;;;;;25.98;19.50;;;;;;;;;;5035762;28;20106;-81
2021/03/13 00:24:29;;;;;;;26.52;20.13;;;;;;;;;;5035629;28;20024;-81
2021/03/13 00:26:55;;;;;;;26.02;18.80;;;;;;;;;;5035512;28;20123;-81
2021/03/13 00:29:21;;;;;;;29.77;21.52;;;;;;;;;;5034401;28;20022;-81
2021/03/13 00:31:52;;;;;;;53.03;36.80;;;;;;;;;;5035574;28;20022;-81
2021/03/13 00:34:19;;;;;;;42.97;29.27;;;;;;;;;;5035361;28;20099;-81
2021/03/13 00:36:45;;;;;;;34.03;24.63;;;;;;;;;;5035458;28;20087;-82
2021/03/13 00:39:11;;;;;;;36.78;26.73;;;;;;;;;;5034289;28;20030;-81
2021/03/13 00:41:37;;;;;;;38.05;26.15;;;;;;;;;;5035391;28;20052;-81
2021/03/13 00:44:03;;;;;;;29.17;22.27;;;;;;;;;;5035169;28;20678;-81
2021/03/13 00:46:29;;;;;;;30.42;21.88;;;;;;;;;;5035321;28;20083;-82
2021/03/13 00:48:55;;;;;;;34.80;24.60;;;;;;;;;;5035228;28;20173;-82
2021/03/13 00:51:21;;;;;;;29.77;21.42;;;;;;;;;;5035228;28;20025;-81
2021/03/13 00:53:48;;;;;;;25.65;17.65;;;;;;;;;;5034981;28;20099;-81
2021/03/13 00:56:14;;;;;;;21.88;16.02;;;;;;;;;;5035129;28;20536;-81
2021/03/13 00:58:40;;;;;;;20.50;15.80;;;;;;;;;;5035094;28;20052;-81
2021/03/13 01:01:06;;;;;;;25.70;19.88;;;;;;;;;;5035017;28;20029;-81
2021/03/13 01:03:32;;;;;;;32.55;23.48;;;;;;;;;;5035006;28;20476;-82
2021/03/13 01:05:58;;;;;;;26.75;17.55;;;;;;;;;;5034864;28;20076;-81
2021/03/13 01:08:24;;;;;;;25.65;18.77;;;;;;;;;;5034925;28;20523;-81
2021/03/13 01:10:51;;;;;;;29.05;19.42;;;;;;;;;;5033392;28;20489;-82
2021/03/13 01:13:18;;;;;;;26.70;19.15;;;;;;;;;;5034691;28;20084;-81
2021/03/13 01:15:44;;;;;;;28.00;19.27;;;;;;;;;;5034659;28;20025;-81
2021/03/13 01:18:10;;;;;;;30.75;20.08;;;;;;;;;;5034655;28;20595;-81
2021/03/13 01:20:36;;;;;;;37.63;25.30;;;;;;;;;;5033360;28;20048;-81
2021/03/13 01:23:03;;;;;;;32.22;24.02;;;;;;;;;;5034606;28;20028;-81
2021/03/13 01:25:29;;;;;;;35.88;26.55;;;;;;;;;;5034570;28;20035;-81
2021/03/13 01:27:55;;;;;;;30.73;21.45;;;;;;;;;;5034509;28;20028;-81
2021/03/13 01:30:21;;;;;;;32.85;22.20;;;;;;;;;;5034360;28;20030;-81
2021/03/13 01:32:48;;;;;;;29.05;20.83;;;;;;;;;;5034206;28;20029;-81
2021/03/13 01:35:14;;;;;;;29.13;18.10;;;;;;;;;;5034344;28;20416;-81
2021/03/13 01:37:40;;;;;;;25.65;18.15;;;;;;;;;;5034314;28;20051;-81
2021/03/13 01:40:10;;;;;;;26.20;18.10;;;;;;;;;;5034195;28;20022;-81
2021/03/13 01:42:36;;;;;;;29.45;19.98;;;;;;;;;;5034360;28;20491;-81
2021/03/13 01:45:02;;;;;;;32.53;21.38;;;;;;;;;;5034324;28;20033;-81
2021/03/13 01:47:29;;;;;;;30.08;22.02;;;;;;;;;;5034218;28;20049;-81
2021/03/13 01:49:56;;;;;;;33.22;25.05;;;;;;;;;;5034047;28;20109;-81
2021/03/13 01:52:22;;;;;;;29.13;21.23;;;;;;;;;;5034071;28;20128;-81
2021/03/13 01:54:49;;;;;;;32.53;22.45;;;;;;;;;;5034043;28;20388;-81
2021/03/13 01:57:17;;;;;;;37.15;24.55;;;;;;;;;;5034021;28;20380;-81
2021/03/13 01:59:43;;;;;;;30.13;21.60;;;;;;;;;;5033895;28;20052;-81
2021/03/13 02:02:10;;;;;;;30.38;22.35;;;;;;;;;;5033838;28;20106;-81
2021/03/13 02:04:40;;;;;;;33.22;23.30;;;;;;;;;;5033747;28;20481;-82
2021/03/13 02:07:08;;;;;;;33.88;22.80;;;;;;;;;;5033834;28;20424;-81
2021/03/13 02:09:53;;;;;;;29.52;20.42;;;;;;;;;;5033657;28;20030;-81
2021/03/13 02:12:38;;;;;;;27.23;20.50;;;;;;;;;;5033490;28;20065;-82
2021/03/13 02:15:07;;;;;;;18.60;15.52;;;;;;;;;;5033830;28;20052;-82
2021/03/13 02:17:38;;;;;;;22.05;15.48;;;;;;;;;;5033657;28;20063;-81
2021/03/13 02:20:04;;;;;;;24.30;16.83;;;;;;;;;;5033523;28;20044;-81
2021/03/13 02:22:32;;;;;;;24.48;17.02;;;;;;;;;;5033645;28;20075;-81
2021/03/13 02:24:59;;;;;;;32.83;21.17;;;;;;;;;;5033640;28;20033;-81
2021/03/13 02:27:27;;;;;;;27.77;21.77;;;;;;;;;;5033594;28;20025;-81
2021/03/13 02:29:55;;;;;;;27.45;19.90;;;;;;;;;;5033369;28;20036;-81
2021/03/13 02:32:24;;;;;;;23.35;16.80;;;;;;;;;;5032160;28;20052;-81
2021/03/13 02:34:54;;;;;;;24.58;17.50;;;;;;;;;;5033409;28;20033;-82
2021/03/13 02:37:22;;;;;;;23.98;16.90;;;;;;;;;;5033427;28;20491;-81
2021/03/13 02:39:50;;;;;;;23.42;17.50;;;;;;;;;;5033636;28;20060;-82
2021/03/13 02:42:16;;;;;;;25.20;16.80;;;;;;;;;;5033305;28;20033;-81
2021/03/13 02:44:44;;;;;;;22.08;16.98;;;;;;;;;;5033180;28;20029;-81
2021/03/13 02:47:10;;;;;;;20.95;15.20;;;;;;;;;;5033241;28;20595;-82
2021/03/13 02:49:38;;;;;;;21.42;16.50;;;;;;;;;;5033274;28;20025;-81
2021/03/13 02:52:06;;;;;;;25.67;17.73;;;;;;;;;;5033495;28;20029;-81
2021/03/13 02:54:33;;;;;;;21.58;17.05;;;;;;;;;;5037446;28;20033;-81
2021/03/13 02:57:01;;;;;;;19.00;15.23;;;;;;;;;;5037398;28;20438;-81
2021/03/13 02:59:27;;;;;;;27.38;19.88;;;;;;;;;;5037325;28;20082;-81
2021/03/13 03:01:55;;;;;;;39.03;28.88;;;;;;;;;;5037146;28;20051;-81
2021/03/13 03:04:22;;;;;;;37.58;25.55;;;;;;;;;;5037231;28;20053;-81
2021/03/13 03:06:55;;;;;;;37.67;27.15;;;;;;;;;;5037177;28;20080;-82
2021/03/13 03:09:22;;;;;;;32.22;21.83;;;;;;;;;;5035759;28;20179;-81
2021/03/13 03:11:49;;;;;;;25.08;18.33;;;;;;;;;;5036891;28;20464;-81
2021/03/13 03:14:17;;;;;;;23.48;17.83;;;;;;;;;;5036904;28;20053;-81
2021/03/13 03:16:45;;;;;;;24.70;17.50;;;;;;;;;;5036976;28;20037;-81
2021/03/13 03:19:11;;;;;;;30.38;20.40;;;;;;;;;;5036952;28;20022;-81
2021/03/13 03:21:39;;;;;;;30.75;18.77;;;;;;;;;;5036869;28;20029;-81
2021/03/13 03:24:07;;;;;;;30.15;18.05;;;;;;;;;;5036887;28;20083;-81
2021/03/13 03:26:34;;;;;;;25.58;18.13;;;;;;;;;;5036763;28;20384;-81
2021/03/13 03:29:00;;;;;;;22.45;16.80;;;;;;;;;;5036716;28;20040;-81
2021/03/13 03:31:26;;;;;;;21.70;15.52;;;;;;;;;;5036703;28;20112;-82
2021/03/13 03:33:52;;;;;;;19.10;14.38;;;;;;;;;;5036638;28;20033;-82
2021/03/13 03:36:18;;;;;;;23.02;16.90;;;;;;;;;;5036679;28;20025;-81
2021/03/13 03:38:44;;;;;;;22.02;16.98;;;;;;;;;;5036633;28;20510;-81
2021/03/13 03:41:10;;;;;;;71.68;35.08;;;;;;;;;;5036569;28;20480;-81
2021/03/13 03:43:36;;;;;;;79.65;39.75;;;;;;;;;;5036466;28;20052;-81
2021/03/13 03:46:04;;;;;;;81.13;41.25;;;;;;;;;;5036583;28;20484;-81
2021/03/13 03:48:31;;;;;;;85.80;40.75;;;;;;;;;;5036417;28;20477;-81
2021/03/13 03:50:58;;;;;;;29.75;22.40;;;;;;;;;;5036383;28;20036;-81
2021/03/13 03:53:42;;;;;;;22.88;16.90;;;;;;;;;;5036356;28;20076;-82
2021/03/13 03:56:09;;;;;;;22.38;16.85;;;;;;;;;;5036281;28;20032;-82
2021/03/13 03:58:55;;;;;;;20.45;15.48;;;;;;;;;;5036072;28;20035;-81
2021/03/13 04:01:23;;;;;;;20.27;15.60;;;;;;;;;;5036239;28;20117;-82
2021/03/13 04:03:51;;;;;;;19.35;15.48;;;;;;;;;;5035928;28;20496;-82
2021/03/13 04:06:18;;;;;;;20.50;16.77;;;;;;;;;;5036042;28;20120;-82
2021/03/13 04:08:45;;;;;;;20.65;16.10;;;;;;;;;;5036173;28;20041;-81
2021/03/13 04:11:13;;;;;;;22.92;17.52;;;;;;;;;;5036115;28;20065;-81
2021/03/13 04:13:39;;;;;;;21.35;18.38;;;;;;;;;;5035895;28;20051;-82
2021/03/13 04:16:05;;;;;;;22.85;16.35;;;;;;;;;;5035829;28;20056;-82
2021/03/13 04:18:32;;;;;;;19.90;15.30;;;;;;;;;;5035776;28;20022;-82
2021/03/13 04:20:58;;;;;;;17.00;13.45;;;;;;;;;;5035818;28;20031;-82
2021/03/13 04:23:25;;;;;;;16.10;13.45;;;;;;;;;;5035936;28;20108;-82
2021/03/13 04:25:52;;;;;;;15.95;13.15;;;;;;;;;;5035743;28;20022;-82
2021/03/13 04:28:19;;;;;;;18.42;14.23;;;;;;;;;;5035750;28;20469;-82
2021/03/13 04:30:45;;;;;;;15.95;12.60;;;;;;;;;;5035553;28;20036;-82
2021/03/13 04:33:12;;;;;;;18.30;13.65;;;;;;;;;;5035385;28;20030;-82
2021/03/13 04:35:39;;;;;;;18.58;14.68;;;;;;;;;;5035455;28;20029;-82
2021/03/13 04:38:05;;;;;;;20.13;15.30;;;;;;;;;;5034247;28;20370;-81
2021/03/13 04:40:32;;;;;;;20.42;15.80;;;;;;;;;;5035405;28;20029;-82
2021/03/13 04:42:59;;;;;;;18.95;15.00;;;;;;;;;;5034165;28;20354;-82
2021/03/13 04:45:25;;;;;;;23.52;15.75;;;;;;;;;;5035224;28;20037;-81
2021/03/13 04:47:51;;;;;;;21.40;15.82;;;;;;;;;;5035451;28;20099;-82
2021/03/13 04:50:21;;;;;;;18.05;14.60;;;;;;;;;;5035206;28;20037;-82
2021/03/13 04:52:48;;;;;;;19.63;13.55;;;;;;;;;;5033999;28;20030;-82
2021/03/13 04:55:14;;;;;;;16.20;13.60;;;;;;;;;;5035131;28;20060;-81
2021/03/13 04:57:40;;;;;;;17.88;13.70;;;;;;;;;;5035172;28;20033;-81
2021/03/13 05:00:08;;;;;;;18.15;13.05;;;;;;;;;;5033893;28;20052;-82
2021/03/13 05:02:34;;;;;;;15.90;12.93;;;;;;;;;;5034797;28;20105;-81
2021/03/13 05:05:00;;;;;;;18.85;13.75;;;;;;;;;;5034834;28;20027;-82
2021/03/13 05:07:26;;;;;;;17.13;13.60;;;;;;;;;;5034738;28;20033;-82
2021/03/13 05:09:52;;;;;;;18.20;13.40;;;;;;;;;;5034921;28;20033;-82
2021/03/13 05:12:18;;;;;;;20.35;14.85;;;;;;;;;;5034500;28;20079;-82
2021/03/13 05:14:46;;;;;;;19.10;13.88;;;;;;;;;;5034430;28;20551;-82
2021/03/13 05:17:12;;;;;;;19.13;13.25;;;;;;;;;;5034619;28;20057;-82
2021/03/13 05:19:38;;;;;;;22.65;15.27;;;;;;;;;;5034613;28;20086;-82
2021/03/13 05:22:04;;;;;;;22.65;17.58;;;;;;;;;;5034760;28;20520;-82
2021/03/13 05:24:31;;;;;;;26.17;19.55;;;;;;;;;;5034533;28;20029;-82
2021/03/13 05:26:57;;;;;;;27.27;19.65;;;;;;;;;;5034741;28;20033;-82
2021/03/13 05:29:23;;;;;;;105.97;76.45;;;;;;;;;;5034414;28;20568;-82
2021/03/13 05:31:49;;;;;;;44.50;31.25;;;;;;;;;;5034497;28;20048;-81
2021/03/13 05:34:15;;;;;;;24.98;20.83;;;;;;;;;;5034460;28;20380;-82
2021/03/13 05:36:41;;;;;;;41.92;29.92;;;;;;;;;;5033199;28;20033;-82
2021/03/13 05:39:08;;;;;;;83.97;57.22;;;;;;;;;;5034295;28;20464;-82
2021/03/13 05:41:36;;;;;;;60.70;43.60;;;;;;;;;;5034400;28;20477;-81
2021/03/13 05:44:03;;;;;;;56.15;43.00;;;;;;;;;;5034283;28;20109;-81
2021/03/13 05:46:35;;;;;;;52.58;36.78;;;;;;;;;;5034217;28;20032;-82
2021/03/13 05:49:10;;;;;;;67.47;45.45;;;;;;;;;;5034187;28;20049;-82
2021/03/13 05:51:38;;;;;;;104.13;65.07;;;;;;;;;;5034110;28;20488;-81
2021/03/13 05:54:05;;;;;;;72.95;49.63;;;;;;;;;;5033902;28;20045;-81
2021/03/13 05:56:31;;;;;;;57.92;40.25;;;;;;;;;;5033857;28;20055;-81
2021/03/13 05:58:58;;;;;;;55.95;38.13;;;;;;;;;;5034210;28;20025;-82
2021/03/13 06:01:26;;;;;;;50.10;36.17;;;;;;;;;;5033895;28;20059;-82
2021/03/13 06:03:52;;;;;;;42.28;31.08;;;;;;;;;;5034219;28;20025;-82
2021/03/13 06:06:19;;;;;;;43.33;33.63;;;;;;;;;;5033914;28;20026;-82
2021/03/13 06:08:45;;;;;;;38.72;27.67;;;;;;;;;;5033896;28;20034;-81
2021/03/13 06:11:11;;;;;;;32.88;24.65;;;;;;;;;;5033460;28;20069;-82
2021/03/13 06:13:37;;;;;;;44.00;33.40;;;;;;;;;;5033689;28;20535;-81
2021/03/13 06:16:03;;;;;;;36.13;25.85;;;;;;;;;;5033746;28;20036;-82
2021/03/13 06:18:48;;;;;;;33.83;26.08;;;;;;;;;;5033647;28;20087;-80
2021/03/13 06:21:33;;;;;;;37.85;28.48;;;;;;;;;;5033705;28;20030;-81
2021/03/13 06:24:05;;;;;;;26.02;20.05;;;;;;;;;;5033696;28;20160;-81
2021/03/13 06:26:49;;;;;;;28.70;22.67;;;;;;;;;;5032969;28;20025;-82
2021/03/13 06:29:16;;;;;;;30.73;24.65;;;;;;;;;;5033464;28;20404;-83
2021/03/13 06:31:42;;;;;;;29.50;24.17;;;;;;;;;;5033572;28;20028;-82
2021/03/13 06:34:08;;;;;;;25.92;21.98;;;;;;;;;;5031969;28;20052;-81
2021/03/13 06:36:34;;;;;;;29.00;22.10;;;;;;;;;;5031608;28;20396;-85
2021/03/13 06:39:00;;;;;;;29.60;22.50;;;;;;;;;;5031815;28;20026;-83
2021/03/13 06:41:26;;;;;;;32.88;26.20;;;;;;;;;;5032801;28;20026;-84
2021/03/13 06:46:40;;;;;;;29.65;21.35;;;;;;;;;;5032989;28;20408;-85
2021/03/13 06:49:06;;;;;;;45.33;33.35;;;;;;;;;;5033158;28;20029;-83
2021/03/13 06:51:33;;;;;;;34.55;27.02;;;;;;;;;;5031320;28;20025;-80
2021/03/13 06:54:00;;;;;;;44.90;35.30;;;;;;;;;;5032482;28;20436;-80
2021/03/13 06:56:30;;;;;;;43.22;35.15;;;;;;;;;;5032616;28;20021;-80
2021/03/13 06:58:57;;;;;;;36.53;29.52;;;;;;;;;;5032982;28;20025;-81
2021/03/13 07:01:27;;;;;;;36.42;28.58;;;;;;;;;;5032551;28;20026;-85
2021/03/13 07:03:53;;;;;;;58.42;42.13;;;;;;;;;;5032635;28;20064;-85
2021/03/13 07:06:20;;;;;;;62.72;43.80;;;;;;;;;;5032532;28;20075;-80
2021/03/13 07:08:47;;;;;;;46.60;34.97;;;;;;;;;;5033013;28;20027;-84
2021/03/13 07:11:17;;;;;;;48.50;38.83;;;;;;;;;;5033673;28;20049;-86
2021/03/13 07:13:45;;;;;;;66.68;47.17;;;;;;;;;;5033373;28;20048;-81
2021/03/13 07:16:30;;;;;;;55.60;39.05;;;;;;;;;;5033429;28;20025;-86
2021/03/13 07:19:14;;;;;;;42.65;32.10;;;;;;;;;;5032953;28;20434;-82
2021/03/13 07:21:41;;;;;;;32.53;27.10;;;;;;;;;;5033612;28;20033;-85
2021/03/13 07:24:09;;;;;;;29.67;24.27;;;;;;;;;;5033179;28;20030;-83
2021/03/13 07:26:36;;;;;;;28.25;24.05;;;;;;;;;;5032997;28;20039;-83
2021/03/13 07:29:05;;;;;;;33.13;25.98;;;;;;;;;;5032593;28;20056;-73
2021/03/13 07:31:33;;;;;;;25.55;20.55;;;;;;;;;;5032445;28;20018;-81
2021/03/13 07:34:00;;;;;;;31.73;24.58;;;;;;;;;;5032398;28;20033;-81
2021/03/13 07:36:27;;;;;;;28.95;22.80;;;;;;;;;;5032243;28;20059;-80
2021/03/13 07:38:55;;;;;;;29.77;24.13;;;;;;;;;;5033958;28;20026;-83
2021/03/13 07:41:22;;;;;;;41.78;31.80;;;;;;;;;;5034777;28;20400;-85
2021/03/13 07:43:49;;;;;;;38.60;28.50;;;;;;;;;;5036306;28;20100;-83
2021/03/13 07:46:15;;;;;;;27.75;22.52;;;;;;;;;;5018435;28;20021;-83
2021/03/13 07:48:41;;;;;;;29.08;24.05;;;;;;;;;;5036292;28;20021;-82
2021/03/13 07:51:08;;;;;;;28.42;23.48;;;;;;;;;;5035852;28;20499;-83
2021/03/13 07:53:43;;;;;;;51.83;36.78;;;;;;;;;;5034561;28;20488;-83
2021/03/13 07:56:12;;;;;;;36.10;28.25;;;;;;;;;;5035832;28;20017;-80
2021/03/13 07:58:39;;;;;;;35.60;27.00;;;;;;;;;;5034643;28;20508;-80
2021/03/13 08:01:05;;;;;;;28.88;23.77;;;;;;;;;;5035836;28;20074;-85
2021/03/13 08:03:35;;;;;;;26.63;21.85;;;;;;;;;;5036179;28;20022;-86
2021/03/13 08:06:05;;;;;;;29.17;22.77;;;;;;;;;;5035134;28;20033;-82
2021/03/13 08:08:36;;;;;;;27.80;22.77;;;;;;;;;;5051005;28;20030;-82
2021/03/13 08:14:06;;;;;;;21.85;16.90;;;;;;;;;;5035448;28;20048;-79
2021/03/13 08:16:41;;;;;;;24.90;19.17;;;;;;;;;;5035898;28;20025;-83
2021/03/13 08:19:30;;;;;;;22.60;18.08;;;;;;;;;;5035517;28;20025;-82
2021/03/13 08:22:09;;;;;;;21.80;16.83;;;;;;;;;;5034884;28;20041;-82
2021/03/13 08:24:42;;;;;;;23.85;18.73;;;;;;;;;;5035952;28;20029;-83
2021/03/13 08:27:09;;;;;;;24.30;19.37;;;;;;;;;;5035444;28;20029;-84
2021/03/13 08:29:52;;;;;;;23.30;19.40;;;;;;;;;;5035394;28;20049;-78
2021/03/13 08:32:38;;;;;;;22.70;18.35;;;;;;;;;;5035522;28;20496;-82
2021/03/13 08:35:07;;;;;;;43.78;27.02;;;;;;;;;;5035574;28;20547;-81
2021/03/13 08:37:46;;;;;;;16.52;12.70;;;;;;;;;;5035344;28;20061;-81
2021/03/13 08:40:25;;;;;;;19.30;15.75;;;;;;;;;;5034840;28;20025;-81
2021/03/13 08:42:51;;;;;;;14.07;12.55;;;;;;;;;;5033787;28;20036;-80
2021/03/13 08:45:18;;;;;;;20.40;15.95;;;;;;;;;;5034787;28;20041;-81
2021/03/13 08:47:48;;;;;;;22.77;17.20;;;;;;;;;;5034123;28;20427;-81
2021/03/13 08:50:34;;;;;;;34.92;27.13;;;;;;;;;;5032793;28;20017;-82
2021/03/13 08:53:20;;;;;;;28.08;20.10;;;;;;;;;;5035022;28;20038;-81
2021/03/13 08:55:46;;;;;;;13.75;11.65;;;;;;;;;;5034091;28;20501;-82
2021/03/13 08:58:32;;;;;;;13.20;10.63;;;;;;;;;;5034848;28;20044;-82
2021/03/13 09:01:14;;;;;;;13.85;12.35;;;;;;;;;;5034466;28;20025;-81
2021/03/13 09:03:47;;;;;;;15.80;13.35;;;;;;;;;;5034552;28;20032;-81
2021/03/13 09:06:13;;;;;;;16.33;14.27;;;;;;;;;;5034621;28;20033;-76
2021/03/13 09:08:40;;;;;;;16.33;13.43;;;;;;;;;;5034680;28;20426;-81
2021/03/13 09:11:06;;;;;;;17.83;14.30;;;;;;;;;;5034365;28;20056;-83
2021/03/13 09:13:32;;;;;;;16.45;14.38;;;;;;;;;;5035070;28;20542;-81
2021/03/13 09:15:58;;;;;;;19.83;16.08;;;;;;;;;;5034516;28;20112;-85
2021/03/13 09:18:24;;;;;;;20.55;17.77;;;;;;;;;;5034715;28;20033;-79
2021/03/13 09:20:51;;;;;;;17.73;15.07;;;;;;;;;;5034198;28;20030;-80
2021/03/13 09:23:17;;;;;;;15.32;13.48;;;;;;;;;;5034470;28;20109;-80
2021/03/13 09:25:43;;;;;;;29.35;22.05;;;;;;;;;;5034119;28;20034;-79
2021/03/13 09:28:09;;;;;;;17.42;13.77;;;;;;;;;;5033187;28;20038;-79
2021/03/13 09:30:35;;;;;;;15.32;13.35;;;;;;;;;;5034172;28;20021;-79
2021/03/13 09:33:02;;;;;;;15.15;12.10;;;;;;;;;;5033911;28;20123;-83
2021/03/13 09:35:28;;;;;;;15.63;13.13;;;;;;;;;;5033973;28;20733;-83
2021/03/13 09:37:55;;;;;;;43.35;34.20;;;;;;;;;;5033883;28;20068;-79
2021/03/13 09:40:22;;;;;;;30.02;23.63;;;;;;;;;;5034039;28;20108;-85
2021/03/13 09:42:49;;;;;;;21.70;18.08;;;;;;;;;;5033730;28;20029;-85
2021/03/13 09:45:17;;;;;;;14.77;13.13;;;;;;;;;;5033876;28;20030;-86
2021/03/13 09:47:45;;;;;;;13.70;11.60;;;;;;;;;;5034153;28;20041;-82
2021/03/13 09:50:11;;;;;;;13.23;11.77;;;;;;;;;;5034737;28;20040;-82
2021/03/13 09:52:38;;;;;;;13.27;10.95;;;;;;;;;;5033830;28;20025;-84
2021/03/13 09:55:04;;;;;;;10.88;9.65;;;;;;;;;;5034038;28;20440;-82
2021/03/13 09:57:31;;;;;;;11.60;10.40;;;;;;;;;;5033944;28;20029;-85
2021/03/13 09:59:57;;;;;;;13.00;11.10;;;;;;;;;;5034269;28;20029;-84
2021/03/13 10:02:24;;;;;;;14.00;12.60;;;;;;;;;;5051148;28;20032;-82
2021/03/13 10:04:50;;;;;;;12.82;11.55;;;;;;;;;;5053327;28;20032;-81
2021/03/13 10:07:17;;;;;;;10.82;9.73;;;;;;;;;;5053858;28;20033;-83
2021/03/13 10:09:50;;;;;;;11.20;10.10;;;;;;;;;;5052379;28;20083;-86
2021/03/13 10:12:22;;;;;;;13.75;11.35;;;;;;;;;;5053229;28;20076;-82
2021/03/13 10:14:49;;;;;;;14.27;10.43;;;;;;;;;;5053137;28;20044;-81
2021/03/13 10:17:15;;;;;;;11.55;10.25;;;;;;;;;;5053323;28;20396;-86
2021/03/13 10:19:43;;;;;;;19.85;15.68;;;;;;;;;;5053535;28;20029;-84
2021/03/13 10:22:10;;;;;;;27.95;19.48;;;;;;;;;;5053522;28;20064;-85
2021/03/13 10:24:47;;;;;;;17.13;11.35;;;;;;;;;;5053129;28;20021;-84
2021/03/13 10:27:18;;;;;;;10.82;8.45;;;;;;;;;;5045773;28;20374;-88
2021/03/13 10:29:49;;;;;;;12.88;10.35;;;;;;;;;;5047888;28;20041;-81
2021/03/13 10:32:15;;;;;;;18.42;16.23;;;;;;;;;;5025404;28;20025;-83
2021/03/13 10:34:41;;;;;;;14.85;12.43;;;;;;;;;;5031673;28;20064;-82
2021/03/13 10:37:08;;;;;;;14.27;12.55;;;;;;;;;;5033412;28;20022;-80
2021/03/13 10:39:47;;;;;;;20.73;15.60;;;;;;;;;;5033004;28;20041;-86
2021/03/13 10:42:22;;;;;;;19.98;14.45;;;;;;;;;;5031773;28;20052;-81
2021/03/13 10:44:49;;;;;;;21.30;14.85;;;;;;;;;;5032701;28;20092;-81
2021/03/13 10:47:28;;;;;;;13.35;11.98;;;;;;;;;;5031997;28;20029;-84
2021/03/13 10:50:13;;;;;;;13.55;11.23;;;;;;;;;;5032437;28;20030;-81
2021/03/13 10:52:39;;;;;;;;;;;;;;;;;;5032096;28;20041;-83
2021/03/13 10:55:06;;;;;;;13.88;11.90;;;;;;;;;;5032150;28;19995;-83
2021/03/13 10:57:33;;;;;;;13.38;11.13;;;;;;;;;;5032085;28;20033;-79
2021/03/13 10:59:59;;;;;;;15.95;13.23;;;;;;;;;;5032349;28;20029;-83
2021/03/13 11:02:25;;;;;;;18.35;15.65;;;;;;;;;;5031814;28;20107;-84
2021/03/13 11:04:51;;;;;;;16.30;13.65;;;;;;;;;;5032214;28;20018;-88
2021/03/13 11:07:17;;;;;;;15.82;13.52;;;;;;;;;;5031044;28;20365;-82
2021/03/13 11:09:47;;;;;;;15.18;13.55;;;;;;;;;;5031793;28;20045;-85
2021/03/13 11:12:13;;;;;;;14.88;13.38;;;;;;;;;;5030971;28;20129;-86
2021/03/13 11:14:39;;;;;;;17.40;15.43;;;;;;;;;;5035708;28;20044;-81
2021/03/13 11:17:08;;;;;;;19.60;15.90;;;;;;;;;;5037236;28;20108;-85
2021/03/13 11:19:34;;;;;;;13.57;12.18;;;;;;;;;;5037234;28;20112;-82
2021/03/13 11:22:00;;;;;;;20.33;17.38;;;;;;;;;;5037781;28;20033;-87
2021/03/13 11:24:27;;;;;;;15.05;12.60;;;;;;;;;;5036909;28;20457;-83
2021/03/13 11:26:53;;;;;;;16.88;13.57;;;;;;;;;;5037831;28;20033;-80
2021/03/13 11:29:19;;;;;;;14.23;12.07;;;;;;;;;;5037231;28;20029;-81
2021/03/13 11:31:45;;;;;;;20.23;15.73;;;;;;;;;;5037223;28;20021;-85
2021/03/13 11:34:11;;;;;;;13.93;10.90;;;;;;;;;;5036695;28;20034;-88
2021/03/13 11:36:38;;;;;;;12.80;11.38;;;;;;;;;;5039134;28;20358;-79
2021/03/13 11:39:07;;;;;;;13.23;11.38;;;;;;;;;;5037660;28;20034;-82
2021/03/13 11:41:33;;;;;;;11.48;9.73;;;;;;;;;;5037571;28;20036;-83
2021/03/13 11:43:59;;;;;;;13.32;9.85;;;;;;;;;;5035655;28;20065;-84
2021/03/13 11:46:25;;;;;;;14.52;11.85;;;;;;;;;;5036570;28;20024;-88
2021/03/13 11:48:51;;;;;;;12.70;10.18;;;;;;;;;;5036626;28;20441;-82
2021/03/13 11:51:18;;;;;;;9.50;8.55;;;;;;;;;;5036461;28;20029;-81
2021/03/13 11:53:44;;;;;;;12.20;9.52;;;;;;;;;;5036306;28;20030;-82
2021/03/13 11:56:10;;;;;;;16.58;11.93;;;;;;;;;;5036398;28;20025;-84
2021/03/13 11:58:36;;;;;;;12.95;11.52;;;;;;;;;;5036308;28;20465;-83
2021/03/13 12:01:03;;;;;;;15.10;12.68;;;;;;;;;;5034970;28;20029;-81
2021/03/13 12:03:29;;;;;;;11.98;9.40;;;;;;;;;;5036183;28;20087;-83
2021/03/13 12:05:55;;;;;;;12.40;10.38;;;;;;;;;;5035981;28;20026;-82
2021/03/13 12:08:21;;;;;;;12.68;10.27;;;;;;;;;;5035914;28;20034;-82
2021/03/13 12:10:48;;;;;;;14.18;11.32;;;;;;;;;;5035870;28;20054;-85
2021/03/13 12:13:14;;;;;;;9.90;8.15;;;;;;;;;;5035926;28;20040;-82
2021/03/13 12:15:40;;;;;;;12.07;9.57;;;;;;;;;;5035807;28;20112;-81
2021/03/13 12:18:06;;;;;;;11.90;10.32;;;;;;;;;;5035761;28;20030;-83
2021/03/13 12:20:32;;;;;;;10.05;9.05;;;;;;;;;;5035961;28;20036;-84
2021/03/13 12:22:59;;;;;;;12.00;9.25;;;;;;;;;;5035859;28;20071;-83
2021/03/13 12:25:25;;;;;;;10.85;8.52;;;;;;;;;;5034718;28;20536;-83
2021/03/13 12:27:51;;;;;;;17.17;11.15;;;;;;;;;;5034745;28;20057;-83
2021/03/13 12:30:19;;;;;;;10.38;9.02;;;;;;;;;;5035428;28;20056;-84
2021/03/13 12:32:45;;;;;;;8.05;6.75;;;;;;;;;;5034264;28;20467;-85
2021/03/13 12:35:11;;;;;;;10.55;7.72;;;;;;;;;;5033504;28;20025;-87
2021/03/13 12:37:39;;;;;;;11.23;8.95;;;;;;;;;;5035176;28;20083;-85
2021/03/13 12:40:06;;;;;;;8.23;6.53;;;;;;;;;;5035035;28;20374;-82
2021/03/13 12:42:32;;;;;;;6.20;5.60;;;;;;;;;;5035179;28;20030;-85
2021/03/13 12:44:58;;;;;;;25.75;14.63;;;;;;;;;;5035027;28;20052;-84
2021/03/13 12:47:24;;;;;;;7.95;6.63;;;;;;;;;;5035011;28;20027;-84
2021/03/13 12:49:50;;;;;;;9.93;7.78;;;;;;;;;;5035088;28;20060;-83
2021/03/13 12:52:17;;;;;;;6.10;4.97;;;;;;;;;;5034851;28;20034;-83
2021/03/13 12:54:43;;;;;;;6.47;5.65;;;;;;;;;;5035161;28;20033;-83
2021/03/13 12:57:09;;;;;;;8.23;6.03;;;;;;;;;;5035283;28;20022;-82
2021/03/13 12:59:35;;;;;;;9.63;6.35;;;;;;;;;;5035079;28;20120;-83
2021/03/13 13:02:01;;;;;;;7.97;5.38;;;;;;;;;;5035410;28;20080;-82
2021/03/13 13:04:30;;;;;;;7.50;5.40;;;;;;;;;;5035026;28;20381;-82
2021/03/13 13:06:56;;;;;;;8.48;7.32;;;;;;;;;;5050289;28;20026;-83
2021/03/13 13:09:22;;;;;;;10.55;8.02;;;;;;;;;;5034587;28;20030;-84
2021/03/13 13:11:48;;;;;;;11.13;7.22;;;;;;;;;;5034519;28;20130;-83
2021/03/13 13:17:18;;;;;;;12.63;9.18;;;;;;;;;;5034590;28;20036;-82
2021/03/13 13:19:44;;;;;;;18.92;15.60;;;;;;;;;;5034443;28;20083;-83
2021/03/13 13:22:10;;;;;;;11.40;8.73;;;;;;;;;;5034527;28;20108;-83
2021/03/13 13:24:36;;;;;;;7.20;5.70;;;;;;;;;;5034425;28;20108;-83
2021/03/13 13:27:02;;;;;;;11.35;8.55;;;;;;;;;;5034533;28;20151;-83
2021/03/13 13:29:29;;;;;;;7.82;6.10;;;;;;;;;;5034463;28;20108;-85
2021/03/13 13:31:55;;;;;;;7.65;6.38;;;;;;;;;;5049339;28;20037;-83
2021/03/13 13:34:21;;;;;;;6.38;4.60;;;;;;;;;;5033163;28;20467;-83
2021/03/13 13:36:49;;;;;;;7.22;4.85;;;;;;;;;;5033807;28;20095;-83
2021/03/13 13:39:15;;;;;;;4.40;3.83;;;;;;;;;;5031899;28;20041;-83
2021/03/13 13:41:42;;;;;;;9.18;7.25;;;;;;;;;;5049545;28;20109;-82
2021/03/13 13:44:09;;;;;;;12.68;9.10;;;;;;;;;;5032923;28;20064;-82
2021/03/13 13:46:36;;;;;;;11.52;9.93;;;;;;;;;;5034102;28;20029;-82
2021/03/13 13:49:03;;;;;;;11.60;9.00;;;;;;;;;;5034173;28;20076;-82
2021/03/13 13:51:30;;;;;;;8.95;8.05;;;;;;;;;;5033971;28;20057;-83
2021/03/13 13:53:56;;;;;;;10.05;9.05;;;;;;;;;;5032743;28;20041;-83
2021/03/13 13:56:22;;;;;;;10.40;8.02;;;;;;;;;;5049229;28;20060;-81
2021/03/13 13:58:49;;;;;;;21.33;18.35;;;;;;;;;;5049198;28;20636;-82
2021/03/13 14:01:15;;;;;;;17.05;14.23;;;;;;;;;;5033796;28;20030;-81
2021/03/13 14:03:42;;;;;;;12.50;9.88;;;;;;;;;;5032517;28;20025;-82
2021/03/13 14:06:09;;;;;;;10.23;9.05;;;;;;;;;;5032656;28;20033;-81
2021/03/13 14:08:35;;;;;;;8.07;7.00;;;;;;;;;;5032886;28;20093;-83
2021/03/13 14:11:01;;;;;;;10.13;7.75;;;;;;;;;;5034114;28;20500;-82
2021/03/13 14:13:28;;;;;;;9.23;7.25;;;;;;;;;;5033363;28;20029;-81
2021/03/13 14:15:55;;;;;;;13.75;10.88;;;;;;;;;;5031760;28;20469;-82
2021/03/13 14:18:22;;;;;;;11.18;9.98;;;;;;;;;;5033492;28;20073;-81
2021/03/13 14:20:48;;;;;;;14.52;10.05;;;;;;;;;;5048650;28;20021;-83
2021/03/13 14:23:14;;;;;;;15.40;11.43;;;;;;;;;;5048884;28;20064;-82
2021/03/13 14:25:41;;;;;;;9.88;8.52;;;;;;;;;;5033442;28;20427;-82
2021/03/13 14:28:07;;;;;;;10.70;9.15;;;;;;;;;;5033452;28;20419;-81
2021/03/13 14:30:33;;;;;;;9.70;7.75;;;;;;;;;;5033583;28;20034;-82
2021/03/13 14:32:59;;;;;;;10.98;9.80;;;;;;;;;;5033436;28;20029;-82